Nason, Mississippi
Current Conditions -  °F | °C
As of 2:35 PM on Thursday 27 Nov 2014 (Local Time) from KGNF Reporting Station
Clear Clear  
Wind Chill: 44°   Ceiling: Unl
Heat Index: 46°   Visibility: 10mi
Dew Point: 30°   Wind: 6mph
Humidity: 53%   Direction: 360°N
Pressure: 30.46"   Gusts: NA
Location:  33.7549°N, 89.9608°W
Report Text: KGNF 272035Z AUTO 36005KT 10SM CLR 08/M01 A3046 RMK AO2
Loading
Personal Weather Stations






























Interactive Weather Map New forecast layout! Learn more

10-Day Weather Forecast

Advertisements
Track Severe Weather on mobile